CheckWX is a tool to help pilots better visualize weather data.  It is not intended as a substitute for an official pre-flight weather briefing.

09:39:27 UTC

EKRK TAF
Copenhagen Roskilde Airport
Copenhagen, Denmark
TAF EKRK 230822Z 2309/2318 11015KT 9999 BKN014 BECMG 2309/2312 BKN018 TEMPO 2309/2313 11018G30KT TEMPO 2313/2315 11015G25KT

Sep-23@
09:00 UTC

Sep-23 @ 09:00 UTC

Sep-23@
18:00 UTC

Sep-23 @ 18:00 UTC

TAF EKRK 230822Z 2309/2318 11015KT 9999 BKN014
Wind
  • 110° at 15 KTS
Cloud Levels
  • Broken at 1,400' AGL

Sep-23@
09:00 UTC

Sep-23 @ 09:00 UTC

Sep-23@
13:00 UTC

Sep-23 @ 13:00 UTC

TEMPO 2309/2313 11018G30KT

Temporary

Temporary Changes expected for less than half the time period

Wind
  • 110° at 18 KTS
  • {Gusting to 30 KTS

Sep-23@
09:00 UTC

Sep-23 @ 09:00 UTC

Sep-23@
18:00 UTC

Sep-23 @ 18:00 UTC

BECMG 2309/2312 BKN018

Becoming

Becoming Conditions expected by Mon, Sep 23, 2019 @ 12:00 UTC

Wind
  • 110° at 15 KTS
Cloud Levels
  • Broken at 1,800' AGL

Sep-23@
13:00 UTC

Sep-23 @ 13:00 UTC

Sep-23@
15:00 UTC

Sep-23 @ 15:00 UTC

TEMPO 2313/2315 11015G25KT

Temporary

Temporary Changes expected for less than half the time period

Wind
  • 110° at 15 KTS
  • {Gusting to 25 KTS